Flight Track Log - Related Links

Times and Time Zones

All times are in EDT time to prevent confusion due to time zone crossing. See the TAM3401 flight status page for this flight to view local times or setup timezone preferences in your user account.

Time Position Orientation Groundspeed Altitude Reporting Facility
EDT Latitude Longitude Course Direction KTS MPH feet Rate Location/Type
Sat 04:09:00 PM -4.7232 -48.3494 178° South  Level Estimated
Sat 04:10:00 PM -4.8246 -48.3456 178° South  Level Estimated
Sat 04:11:00 PM -4.9259 -48.3417 178° South  Level Estimated
Sat 04:12:00 PM -5.0272 -48.3378 178° South  Level Estimated
Sat 04:13:00 PM -5.1286 -48.3340 178° South  Level Estimated
Sat 04:14:00 PM -5.2299 -48.3301 178° South  Level Estimated
Sat 04:15:00 PM -5.3312 -48.3262 178° South  Level Estimated
Sat 04:16:00 PM -5.4326 -48.3224 178° South  Level Estimated
Sat 04:17:00 PM -5.5339 -48.3185 178° South  Level Estimated
Sat 04:18:00 PM -5.6352 -48.3146 178° South  Level Estimated
Sat 04:19:00 PM -5.7365 -48.3108 178° South  Level Estimated
Sat 04:20:00 PM -5.8379 -48.3069 178° South  Level Estimated
Sat 04:21:00 PM -5.9392 -48.3030 178° South  Level Estimated
Sat 04:22:00 PM -6.0405 -48.2991 178° South  Level Estimated
Sat 04:23:00 PM -6.1419 -48.2953 178° South  Level Estimated
Sat 04:24:00 PM -6.2432 -48.2914 178° South  Level Estimated
Sat 04:25:00 PM -6.3445 -48.2875 178° South  Level Estimated
Sat 04:26:00 PM -6.4459 -48.2836 178° South  Level Estimated
Sat 04:27:00 PM -6.5472 -48.2798 178° South  Level Estimated
Sat 04:28:00 PM -6.6485 -48.2759 178° South  Level Estimated
Sat 04:29:00 PM -6.7498 -48.2720 178° South  Level Estimated
Sat 04:30:00 PM -6.8512 -48.2681 178° South  Level Estimated
Sat 04:31:00 PM -6.9525 -48.2642 178° South  Level Estimated
Sat 04:32:00 PM -7.0538 -48.2603 178° South  Level Estimated
Sat 04:33:00 PM -7.1552 -48.2564 178° South  Level Estimated
Sat 04:34:00 PM -7.2565 -48.2525 178° South  Level Estimated
Sat 04:35:00 PM -7.3578 -48.2486 178° South  Level Estimated
Sat 04:36:00 PM -7.4592 -48.2447 178° South  Level Estimated
Sat 04:37:00 PM -7.5605 -48.2408 178° South  Level Estimated
Sat 04:38:00 PM -7.6618 -48.2369 178° South  Level Estimated
Sat 04:39:00 PM -7.7632 -48.2330 178° South  Level Estimated
Sat 04:40:00 PM -7.8645 -48.2291 178° South  Level Estimated
Sat 04:41:00 PM -7.9658 -48.2252 178° South  Level Estimated
Sat 04:42:00 PM -8.0671 -48.2213 178° South  Level Estimated
Sat 04:43:00 PM -8.1685 -48.2174 178° South  Level Estimated
Sat 04:44:00 PM -8.2698 -48.2135 178° South  Level Estimated
Sat 04:45:00 PM -8.3711 -48.2096 178° South  Level Estimated
Sat 04:46:00 PM -8.4725 -48.2057 178° South  Level Estimated
Sat 04:47:00 PM -8.5738 -48.2017 178° South  Level Estimated
Sat 04:48:00 PM -8.6751 -48.1978 178° South  Level Estimated
Sat 04:49:00 PM -8.7765 -48.1939 178° South  Level Estimated
Sat 04:50:00 PM -8.8778 -48.1900 178° South  Level Estimated
Sat 04:51:00 PM -8.9791 -48.1860 178° South  Level Estimated
Sat 04:52:00 PM -9.0804 -48.1821 178° South  Level Estimated
Sat 04:53:00 PM -9.1818 -48.1782 178° South  Level Estimated
Sat 04:54:00 PM -9.2831 -48.1743 178° South  Level Estimated
Sat 04:55:00 PM -9.3844 -48.1703 178° South  Level Estimated
Sat 04:56:00 PM -9.4858 -48.1664 178° South  Level Estimated
Sat 04:57:00 PM -9.5871 -48.1624 178° South  Level Estimated
Sat 04:58:00 PM -9.6884 -48.1585 178° South  Level Estimated
Sat 04:59:00 PM -9.7898 -48.1545 178° South  Level Estimated
Sat 05:00:00 PM -9.8911 -48.1506 178° South  Level Estimated
Sat 05:01:00 PM -9.9924 -48.1466 178° South  Level Estimated
Sat 05:02:00 PM -10.0937 -48.1427 178° South  Level Estimated
Sat 05:03:00 PM -10.1951 -48.1387 178° South  Level Estimated
Sat 05:04:00 PM -10.2964 -48.1348 178° South  Level Estimated
Sat 05:05:00 PM -10.3977 -48.1308 178° South  Level Estimated
Sat 05:06:00 PM -10.4991 -48.1269 178° South  Level Estimated
Sat 05:07:00 PM -10.6004 -48.1229 178° South  Level Estimated
Sat 05:08:00 PM -10.7017 -48.1189 178° South  Level Estimated
Sat 05:09:00 PM -10.8031 -48.1149 178° South  Level Estimated
Sat 05:10:00 PM -10.9044 -48.1110 178° South  Level Estimated
Sat 05:11:00 PM -11.0057 -48.1070 178° South  Level Estimated
Sat 05:12:00 PM -11.1070 -48.1030 178° South  Level Estimated
Sat 05:13:00 PM -11.2084 -48.0990 178° South  Level Estimated
Sat 05:14:00 PM -11.3097 -48.0951 178° South  Level Estimated
Sat 05:15:00 PM -11.4110 -48.0911 178° South  Level Estimated
Sat 05:16:00 PM -11.5124 -48.0871 178° South  Level Estimated
Sat 05:17:00 PM -11.6137 -48.0831 178° South  Level Estimated
Sat 05:18:00 PM -11.7150 -48.0791 178° South  Level Estimated
Sat 05:19:00 PM -11.8163 -48.0751 178° South  Level Estimated
Sat 05:20:00 PM -11.9177 -48.0711 178° South  Level Estimated
Sat 05:21:00 PM -12.0190 -48.0671 178° South  Level Estimated
Sat 05:22:00 PM -12.1203 -48.0631 178° South  Level Estimated
Sat 05:23:00 PM -12.2217 -48.0591 178° South  Level Estimated
Sat 05:24:00 PM -12.3230 -48.0550 178° South  Level Estimated
Sat 05:25:00 PM -12.4243 -48.0510 178° South  Level Estimated
Sat 05:26:00 PM -12.5257 -48.0470 178° South  Level Estimated
Sat 05:27:00 PM -12.6270 -48.0430 178° South  Level Estimated
Sat 05:28:00 PM -12.7283 -48.0390 178° South  Level Estimated
Sat 05:29:00 PM -12.8296 -48.0349 178° South  Level Estimated
Sat 05:30:00 PM -12.9310 -48.0309 178° South  Level Estimated
Sat 05:31:00 PM -13.0323 -48.0269 178° South  Level Estimated
Sat 05:32:00 PM -13.1336 -48.0228 178° South  Level Estimated
Sat 05:33:00 PM -13.2350 -48.0188 178° South  Level Estimated
Sat 05:34:00 PM -13.3363 -48.0147 178° South  Level Estimated
Sat 05:35:00 PM -13.4376 -48.0107 178° South  Level Estimated
Sat 05:36:00 PM -13.5390 -48.0066 178° South  Level Estimated
Sat 05:37:00 PM -13.6403 -48.0026 178° South  Level Estimated
Sat 05:38:00 PM -13.7416 -47.9985 178° South  Level Estimated
Sat 05:39:00 PM -13.8429 -47.9944 178° South  Level Estimated
Sat 05:40:00 PM -13.9443 -47.9904 178° South  Level Estimated
Sat 05:41:00 PM -14.0456 -47.9863 178° South  Level Estimated
Sat 05:42:00 PM -14.1469 -47.9822 178° South  Level Estimated
Sat 05:43:00 PM -14.2483 -47.9782 178° South  Level Estimated
Sat 05:44:00 PM -14.3496 -47.9741 178° South  Level Estimated
Sat 05:45:00 PM -14.4509 -47.9700 178° South  Level Estimated
Sat 05:46:00 PM -14.5523 -47.9659 178° South  Level Estimated
Sat 05:47:00 PM -14.6536 -47.9618 178° South  Level Estimated
Sat 05:48:00 PM -14.7549 -47.9577 178° South  Level Estimated
Sat 05:49:00 PM -14.8562 -47.9536 178° South  Level Estimated
Sat 05:50:00 PM -14.9576 -47.9495 178° South  Level Estimated
Sat 05:51:00 PM -15.0589 -47.9454 178° South  Level Estimated
Sat 05:52:00 PM -15.1602 -47.9413 178° South  Level Estimated
Sat 05:53:00 PM -15.2616 -47.9372 178° South  Level Estimated
Sat 05:54:00 PM -15.3629 -47.9330 178° South  Level Estimated
Sat 05:55:00 PM -15.4642 -47.9289 178° South  Level Estimated
Sat 05:56:00 PM -15.5656 -47.9248 178° South  Level Estimated
Sat 05:57:00 PM -15.6669 -47.9207 178° South  Level Estimated
Sat 05:58:00 PM -15.7682 -47.9165 178° South  Level Estimated
Sat 05:59:00 PM -15.8626 -47.9127 178° South  Level Estimated
Sat 06:00:00 PM -15.8626 -47.9127 128° Southeast  Level Estimated
Sat 06:01:00 PM -15.8626 -47.9127 128° Southeast  Level Estimated
Sat 06:02:00 PM -15.8626 -47.9127 128° Southeast  Level Estimated
Sat 06:03:00 PM -15.8626 -47.9127 128° Southeast  Level Estimated
Sat 06:04:00 PM -15.8626 -47.9127 128° Southeast  Level Estimated
Sat 06:05:00 PM -15.8626 -47.9127 128° Southeast  Level Estimated
Sat 06:06:00 PM -15.8626 -47.9127 128° Southeast  Level Estimated
Sat 06:07:00 PM -15.8626 -47.9127 128° Southeast  Level Estimated
Sat 06:08:00 PM -15.8626 -47.9127 128° Southeast  Level Estimated
Sat 06:09:00 PM -15.8626 -47.9127 128° Southeast  Level Estimated
Sat 06:10:00 PM -15.8626 -47.9127 128° Southeast  Level Estimated
Sat 06:11:00 PM -15.8626 -47.9127 128° Southeast  Level Estimated
Sat 06:12:00 PM -15.8626 -47.9127 128° Southeast  Level Estimated
Sat 06:13:00 PM -15.8626 -47.9127 128° Southeast  Level Estimated
Sat 06:14:00 PM -15.8626 -47.9127 128° Southeast  Level Estimated
Sat 06:15:00 PM -15.8626 -47.9127 128° Southeast  Level Estimated

Login

Don't have an account? Register now (free) for customized features, flight alerts, and more!